sensor_id;sensor_type;location;lat;lon;timestamp;pressure;altitude;pressure_sealevel;temperature;humidity
33949;BME280;20229;49.856;19.030;2022-12-29T00:02:32;101643.83;;;6.25;58.63
33949;BME280;20229;49.856;19.030;2022-12-29T00:07:54;101632.22;;;6.19;57.90
33949;BME280;20229;49.856;19.030;2022-12-29T00:12:58;101638.48;;;6.21;58.23
33949;BME280;20229;49.856;19.030;2022-12-29T00:18:20;101654.91;;;6.15;58.41
33949;BME280;20229;49.856;19.030;2022-12-29T00:23:24;101650.33;;;6.17;57.92
33949;BME280;20229;49.856;19.030;2022-12-29T00:28:46;101651.33;;;6.13;58.75
33949;BME280;20229;49.856;19.030;2022-12-29T00:34:02;101658.70;;;6.08;59.34
33949;BME280;20229;49.856;19.030;2022-12-29T00:39:18;101643.45;;;6.03;58.45
33949;BME280;20229;49.856;19.030;2022-12-29T00:44:34;101629.78;;;6.07;59.07
33949;BME280;20229;49.856;19.030;2022-12-29T00:49:38;101628.11;;;6.02;59.08
33949;BME280;20229;49.856;19.030;2022-12-29T00:54:41;101617.23;;;6.03;59.34
33949;BME280;20229;49.856;19.030;2022-12-29T01:00:04;101621.88;;;5.98;59.85
33949;BME280;20229;49.856;19.030;2022-12-29T01:05:08;101617.30;;;6.00;59.35
33949;BME280;20229;49.856;19.030;2022-12-29T01:10:29;101617.30;;;6.00;59.34
33949;BME280;20229;49.856;19.030;2022-12-29T01:15:33;101592.81;;;6.05;59.59
33949;BME280;20229;49.856;19.030;2022-12-29T01:21:03;101593.64;;;6.08;59.14
33949;BME280;20229;49.856;19.030;2022-12-29T01:26:10;101600.69;;;6.15;58.53
33949;BME280;20229;49.856;19.030;2022-12-29T01:31:21;101611.30;;;6.25;58.94
33949;BME280;20229;49.856;19.030;2022-12-29T01:36:24;101632.92;;;6.28;58.71
33949;BME280;20229;49.856;19.030;2022-12-29T01:41:46;101619.17;;;6.35;58.92
33949;BME280;20229;49.856;19.030;2022-12-29T01:46:50;101617.82;;;6.53;58.81
33949;BME280;20229;49.856;19.030;2022-12-29T01:52:12;101613.95;;;6.63;58.16
33949;BME280;20229;49.856;19.030;2022-12-29T01:57:19;101597.51;;;6.69;58.07
33949;BME280;20229;49.856;19.030;2022-12-29T02:02:39;101597.51;;;6.69;57.94
33949;BME280;20229;49.856;19.030;2022-12-29T02:07:44;101591.80;;;6.80;57.85
33949;BME280;20229;49.856;19.030;2022-12-29T02:13:04;101581.68;;;6.87;56.85
33949;BME280;20229;49.856;19.030;2022-12-29T02:44:43;101542.73;;;6.88;58.41
33949;BME280;20229;49.856;19.030;2022-12-29T02:49:54;101540.69;;;6.96;58.84
33949;BME280;20229;49.856;19.030;2022-12-29T02:54:59;101522.72;;;6.92;58.66
33949;BME280;20229;49.856;19.030;2022-12-29T03:00:10;101526.23;;;6.95;59.17
33949;BME280;20229;49.856;19.030;2022-12-29T03:21:16;101542.90;;;6.82;59.67
33949;BME280;20229;49.856;19.030;2022-12-29T03:26:22;101538.47;;;6.79;59.58
33949;BME280;20229;49.856;19.030;2022-12-29T03:31:26;101521.30;;;6.79;60.05
33949;BME280;20229;49.856;19.030;2022-12-29T03:41:50;101514.27;;;6.72;60.08
33949;BME280;20229;49.856;19.030;2022-12-29T03:46:59;101509.96;;;6.63;60.58
33949;BME280;20229;49.856;19.030;2022-12-29T03:52:02;101526.24;;;6.63;60.53
33949;BME280;20229;49.856;19.030;2022-12-29T03:57:21;101510.10;;;6.58;60.42
33949;BME280;20229;49.856;19.030;2022-12-29T04:02:24;101510.98;;;6.59;61.03
33949;BME280;20229;49.856;19.030;2022-12-29T04:07:47;101506.45;;;6.59;61.32
33949;BME280;20229;49.856;19.030;2022-12-29T04:12:50;101503.57;;;6.65;61.01
33949;BME280;20229;49.856;19.030;2022-12-29T04:18:13;101512.66;;;6.64;61.02
33949;BME280;20229;49.856;19.030;2022-12-29T04:23:16;101508.92;;;6.68;60.81
33949;BME280;20229;49.856;19.030;2022-12-29T04:28:38;101481.02;;;6.63;60.75
33949;BME280;20229;49.856;19.030;2022-12-29T04:33:42;101465.50;;;6.68;60.49
33949;BME280;20229;49.856;19.030;2022-12-29T04:39:03;101468.21;;;6.68;60.43
33949;BME280;20229;49.856;19.030;2022-12-29T04:44:08;101461.70;;;6.74;59.93
33949;BME280;20229;49.856;19.030;2022-12-29T04:49:29;101459.86;;;6.76;59.63
33949;BME280;20229;49.856;19.030;2022-12-29T04:54:33;101455.09;;;6.84;60.03
33949;BME280;20229;49.856;19.030;2022-12-29T04:59:55;101456.17;;;6.79;59.79
33949;BME280;20229;49.856;19.030;2022-12-29T05:04:58;101443.43;;;6.81;59.70
33949;BME280;20229;49.856;19.030;2022-12-29T05:10:21;101460.68;;;6.78;60.08
33949;BME280;20229;49.856;19.030;2022-12-29T05:15:24;101451.55;;;6.82;59.63
33949;BME280;20229;49.856;19.030;2022-12-29T05:20:47;101460.51;;;6.84;59.71
33949;BME280;20229;49.856;19.030;2022-12-29T05:25:50;101446.91;;;6.86;59.62
33949;BME280;20229;49.856;19.030;2022-12-29T05:31:12;101445.11;;;6.85;59.12
33949;BME280;20229;49.856;19.030;2022-12-29T05:36:16;101435.06;;;6.88;58.82
33949;BME280;20229;49.856;19.030;2022-12-29T05:41:38;101452.34;;;6.86;58.95
33949;BME280;20229;49.856;19.030;2022-12-29T05:46:41;101449.43;;;6.92;58.68
33949;BME280;20229;49.856;19.030;2022-12-29T05:57:32;101435.59;;;7.01;59.04
33949;BME280;20229;49.856;19.030;2022-12-29T06:02:35;101430.08;;;7.04;58.92
33949;BME280;20229;49.856;19.030;2022-12-29T06:07:38;101416.26;;;7.12;58.49
33949;BME280;20229;49.856;19.030;2022-12-29T06:12:55;101426.14;;;7.14;59.04
33949;BME280;20229;49.856;19.030;2022-12-29T06:17:59;101422.39;;;7.18;59.30
33949;BME280;20229;49.856;19.030;2022-12-29T06:23:21;101430.45;;;7.22;59.40
33949;BME280;20229;49.856;19.030;2022-12-29T06:28:25;101434.75;;;7.29;59.82
33949;BME280;20229;49.856;19.030;2022-12-29T06:33:47;101450.95;;;7.32;59.88
33949;BME280;20229;49.856;19.030;2022-12-29T06:38:50;101431.63;;;7.41;59.77
33949;BME280;20229;49.856;19.030;2022-12-29T06:44:12;101434.16;;;7.47;59.48
33949;BME280;20229;49.856;19.030;2022-12-29T06:49:16;101419.25;;;7.60;59.64
33949;BME280;20229;49.856;19.030;2022-12-29T06:54:38;101427.08;;;7.70;60.01
33949;BME280;20229;49.856;19.030;2022-12-29T06:59:41;101422.08;;;7.84;59.81
33949;BME280;20229;49.856;19.030;2022-12-29T07:05:04;101425.34;;;7.95;59.22
33949;BME280;20229;49.856;19.030;2022-12-29T07:10:08;101429.36;;;8.10;59.74
33949;BME280;20229;49.856;19.030;2022-12-29T07:15:29;101439.08;;;8.17;59.31
33949;BME280;20229;49.856;19.030;2022-12-29T07:20:32;101419.55;;;8.31;59.35
33949;BME280;20229;49.856;19.030;2022-12-29T07:26:02;101417.54;;;8.37;59.62
33949;BME280;20229;49.856;19.030;2022-12-29T07:31:06;101408.99;;;8.48;59.41
33949;BME280;20229;49.856;19.030;2022-12-29T07:36:21;101423.19;;;8.56;59.54
33949;BME280;20229;49.856;19.030;2022-12-29T07:41:24;101412.86;;;8.66;59.44
33949;BME280;20229;49.856;19.030;2022-12-29T07:46:46;101438.03;;;8.73;59.68
33949;BME280;20229;49.856;19.030;2022-12-29T07:51:50;101444.94;;;8.81;59.91
33949;BME280;20229;49.856;19.030;2022-12-29T07:57:13;101450.27;;;8.84;59.64
33949;BME280;20229;49.856;19.030;2022-12-29T08:02:16;101450.05;;;8.91;59.31
33949;BME280;20229;49.856;19.030;2022-12-29T08:07:40;101455.36;;;8.94;59.47
33949;BME280;20229;49.856;19.030;2022-12-29T08:12:45;101443.24;;;9.02;59.58
33949;BME280;20229;49.856;19.030;2022-12-29T08:18:06;101435.77;;;9.07;59.43
33949;BME280;20229;49.856;19.030;2022-12-29T08:23:09;101435.43;;;9.17;58.65
33949;BME280;20229;49.856;19.030;2022-12-29T08:28:32;101440.64;;;9.23;59.26
33949;BME280;20229;49.856;19.030;2022-12-29T08:33:36;101437.38;;;9.37;59.31
33949;BME280;20229;49.856;19.030;2022-12-29T08:38:57;101447.13;;;9.42;59.25
33949;BME280;20229;49.856;19.030;2022-12-29T08:44:01;101431.42;;;9.49;59.32
33949;BME280;20229;49.856;19.030;2022-12-29T08:49:22;101423.31;;;9.47;59.30
33949;BME280;20229;49.856;19.030;2022-12-29T08:54:26;101441.32;;;9.51;59.44
33949;BME280;20229;49.856;19.030;2022-12-29T08:59:48;101435.03;;;9.49;59.08
33949;BME280;20229;49.856;19.030;2022-12-29T09:04:51;101441.20;;;9.54;58.66
33949;BME280;20229;49.856;19.030;2022-12-29T09:10:13;101438.71;;;9.48;59.09
33949;BME280;20229;49.856;19.030;2022-12-29T09:15:17;101416.84;;;9.50;59.40
33949;BME280;20229;49.856;19.030;2022-12-29T09:20:39;101401.52;;;9.47;59.39
33949;BME280;20229;49.856;19.030;2022-12-29T09:25:42;101381.28;;;9.53;59.18
33949;BME280;20229;49.856;19.030;2022-12-29T09:31:05;101401.12;;;9.56;59.64
33949;BME280;20229;49.856;19.030;2022-12-29T09:36:09;101406.13;;;9.67;59.71
33949;BME280;20229;49.856;19.030;2022-12-29T09:46:50;101403.37;;;9.89;59.75
33949;BME280;20229;49.856;19.030;2022-12-29T09:57:38;101397.36;;;10.23;59.01
33949;BME280;20229;49.856;19.030;2022-12-29T10:02:48;101402.38;;;10.55;58.39
33949;BME280;20229;49.856;19.030;2022-12-29T10:08:07;101402.27;;;10.76;58.20
33949;BME280;20229;49.856;19.030;2022-12-29T10:13:18;101407.46;;;10.83;57.64
33949;BME280;20229;49.856;19.030;2022-12-29T10:23:44;101376.12;;;11.10;56.66
33949;BME280;20229;49.856;19.030;2022-12-29T10:29:02;101393.62;;;11.25;57.09
33949;BME280;20229;49.856;19.030;2022-12-29T10:39:26;101383.38;;;11.47;55.82
33949;BME280;20229;49.856;19.030;2022-12-29T10:44:32;101362.78;;;11.40;56.44
33949;BME280;20229;49.856;19.030;2022-12-29T10:49:41;101369.46;;;11.35;56.28
33949;BME280;20229;49.856;19.030;2022-12-29T11:00:09;101386.65;;;11.37;56.62
33949;BME280;20229;49.856;19.030;2022-12-29T11:10:35;101345.32;;;11.98;55.95
33949;BME280;20229;49.856;19.030;2022-12-29T11:15:44;101342.48;;;12.34;54.73
33949;BME280;20229;49.856;19.030;2022-12-29T11:20:54;101341.15;;;12.59;53.60
33949;BME280;20229;49.856;19.030;2022-12-29T11:31:17;101360.02;;;12.48;53.63
33949;BME280;20229;49.856;19.030;2022-12-29T11:36:23;101345.12;;;12.36;54.57
33949;BME280;20229;49.856;19.030;2022-12-29T11:41:31;101346.19;;;12.33;53.40
33949;BME280;20229;49.856;19.030;2022-12-29T11:46:39;101344.74;;;12.26;54.03
33949;BME280;20229;49.856;19.030;2022-12-29T11:51:47;101346.66;;;12.24;53.89
33949;BME280;20229;49.856;19.030;2022-12-29T11:57:14;101358.81;;;12.18;54.61
33949;BME280;20229;49.856;19.030;2022-12-29T12:02:53;101359.70;;;12.19;54.26
33949;BME280;20229;49.856;19.030;2022-12-29T12:14:21;101360.04;;;12.13;53.42
33949;BME280;20229;49.856;19.030;2022-12-29T12:18:49;101359.48;;;12.06;54.10
33949;BME280;20229;49.856;19.030;2022-12-29T12:29:16;101366.96;;;12.03;54.23
33949;BME280;20229;49.856;19.030;2022-12-29T12:45:08;101361.34;;;12.06;53.96
33949;BME280;20229;49.856;19.030;2022-12-29T13:00:48;101365.02;;;11.87;54.04
33949;BME280;20229;49.856;19.030;2022-12-29T13:06:04;101370.66;;;11.84;53.92
33949;BME280;20229;49.856;19.030;2022-12-29T13:11:18;101376.40;;;11.78;54.96
33949;BME280;20229;49.856;19.030;2022-12-29T13:21:51;101372.20;;;11.71;54.02
33949;BME280;20229;49.856;19.030;2022-12-29T13:27:10;101364.05;;;11.69;54.73
33949;BME280;20229;49.856;19.030;2022-12-29T13:37:34;101361.56;;;11.65;53.54
33949;BME280;20229;49.856;19.030;2022-12-29T13:42:40;101368.30;;;11.58;55.20
33949;BME280;20229;49.856;19.030;2022-12-29T13:48:36;101363.13;;;11.52;55.16
33949;BME280;20229;49.856;19.030;2022-12-29T13:58:31;101343.79;;;11.37;55.24
33949;BME280;20229;49.856;19.030;2022-12-29T14:03:48;101336.13;;;11.27;55.73
33949;BME280;20229;49.856;19.030;2022-12-29T14:08:57;101327.34;;;11.20;55.43
33949;BME280;20229;49.856;19.030;2022-12-29T14:14:28;101332.30;;;11.12;55.16
33949;BME280;20229;49.856;19.030;2022-12-29T14:19:25;101347.23;;;11.05;55.45
33949;BME280;20229;49.856;19.030;2022-12-29T14:24:39;101355.05;;;10.93;55.93
33949;BME280;20229;49.856;19.030;2022-12-29T14:29:46;101354.37;;;10.88;56.46
33949;BME280;20229;49.856;19.030;2022-12-29T14:34:56;101354.14;;;10.74;56.88
33949;BME280;20229;49.856;19.030;2022-12-29T14:50:41;101350.26;;;10.40;58.41
33949;BME280;20229;49.856;19.030;2022-12-29T14:55:47;101350.66;;;10.31;58.74
33949;BME280;20229;49.856;19.030;2022-12-29T15:00:55;101351.71;;;10.28;58.97
33949;BME280;20229;49.856;19.030;2022-12-29T15:06:13;101360.26;;;10.19;59.59
33949;BME280;20229;49.856;19.030;2022-12-29T15:11:18;101349.91;;;10.07;59.56
33949;BME280;20229;49.856;19.030;2022-12-29T15:16:31;101352.27;;;9.94;60.08
33949;BME280;20229;49.856;19.030;2022-12-29T15:21:36;101357.23;;;9.85;60.30
33949;BME280;20229;49.856;19.030;2022-12-29T15:26:42;101346.65;;;9.77;60.14
33949;BME280;20229;49.856;19.030;2022-12-29T15:31:47;101358.52;;;9.76;60.47
33949;BME280;20229;49.856;19.030;2022-12-29T15:36:51;101369.05;;;9.63;60.92
33949;BME280;20229;49.856;19.030;2022-12-29T15:41:59;101371.90;;;9.60;61.18
33949;BME280;20229;49.856;19.030;2022-12-29T15:47:23;101366.01;;;9.49;61.39
33949;BME280;20229;49.856;19.030;2022-12-29T15:52:28;101372.78;;;9.39;61.68
33949;BME280;20229;49.856;19.030;2022-12-29T15:57:42;101395.41;;;9.19;62.25
33949;BME280;20229;49.856;19.030;2022-12-29T16:02:46;101375.85;;;9.07;62.66
33949;BME280;20229;49.856;19.030;2022-12-29T16:13:28;101383.33;;;9.02;62.35
33949;BME280;20229;49.856;19.030;2022-12-29T16:18:36;101381.91;;;8.92;62.58
33949;BME280;20229;49.856;19.030;2022-12-29T16:23:46;101379.42;;;8.86;62.52
33949;BME280;20229;49.856;19.030;2022-12-29T16:28:59;101381.68;;;8.75;62.56
33949;BME280;20229;49.856;19.030;2022-12-29T16:34:11;101383.52;;;8.74;62.63
33949;BME280;20229;49.856;19.030;2022-12-29T16:44:39;101393.15;;;8.59;62.95
33949;BME280;20229;49.856;19.030;2022-12-29T16:49:52;101393.37;;;8.53;62.89
33949;BME280;20229;49.856;19.030;2022-12-29T16:54:58;101383.55;;;8.49;63.08
33949;BME280;20229;49.856;19.030;2022-12-29T17:00:21;101378.50;;;8.38;63.65
33949;BME280;20229;49.856;19.030;2022-12-29T17:05:25;101392.88;;;8.42;63.12
33949;BME280;20229;49.856;19.030;2022-12-29T17:10:40;101391.23;;;8.36;63.20
33949;BME280;20229;49.856;19.030;2022-12-29T17:15:56;101380.41;;;8.35;63.24
33949;BME280;20229;49.856;19.030;2022-12-29T17:21:06;101378.97;;;8.25;63.40
33949;BME280;20229;49.856;19.030;2022-12-29T17:26:10;101378.12;;;8.23;63.43
33949;BME280;20229;49.856;19.030;2022-12-29T17:31:32;101378.40;;;8.15;63.77
33949;BME280;20229;49.856;19.030;2022-12-29T17:36:35;101381.08;;;8.17;63.86
33949;BME280;20229;49.856;19.030;2022-12-29T17:41:58;101384.19;;;8.06;64.25
33949;BME280;20229;49.856;19.030;2022-12-29T17:47:01;101383.41;;;8.02;64.60
33949;BME280;20229;49.856;19.030;2022-12-29T17:52:24;101377.56;;;7.88;65.11
33949;BME280;20229;49.856;19.030;2022-12-29T17:57:27;101384.94;;;7.84;65.10
33949;BME280;20229;49.856;19.030;2022-12-29T18:02:50;101386.83;;;7.81;65.48
33949;BME280;20229;49.856;19.030;2022-12-29T18:07:55;101380.68;;;7.76;65.53
33949;BME280;20229;49.856;19.030;2022-12-29T18:13:30;101386.42;;;7.66;65.77
33949;BME280;20229;49.856;19.030;2022-12-29T18:18:30;101376.49;;;7.65;65.79
33949;BME280;20229;49.856;19.030;2022-12-29T18:23:41;101382.26;;;7.56;66.44
33949;BME280;20229;49.856;19.030;2022-12-29T18:28:45;101363.23;;;7.56;67.08
33949;BME280;20229;49.856;19.030;2022-12-29T18:34:12;101354.23;;;7.54;66.82
33949;BME280;20229;49.856;19.030;2022-12-29T18:39:17;101353.87;;;7.65;66.37
33949;BME280;20229;49.856;19.030;2022-12-29T18:44:33;101349.21;;;7.69;67.07
33949;BME280;20229;49.856;19.030;2022-12-29T18:49:37;101342.09;;;7.91;65.50
33949;BME280;20229;49.856;19.030;2022-12-29T18:54:58;101344.17;;;8.09;65.00
33949;BME280;20229;49.856;19.030;2022-12-29T19:00:03;101341.70;;;8.27;64.32
33949;BME280;20229;49.856;19.030;2022-12-29T19:05:30;101334.02;;;8.40;63.62
33949;BME280;20229;49.856;19.030;2022-12-29T19:10:34;101331.47;;;8.58;62.80
33949;BME280;20229;49.856;19.030;2022-12-29T19:15:49;101334.80;;;8.67;62.40
33949;BME280;20229;49.856;19.030;2022-12-29T19:20:54;101353.64;;;8.73;62.88
33949;BME280;20229;49.856;19.030;2022-12-29T19:31:36;101384.50;;;8.72;61.95
33949;BME280;20229;49.856;19.030;2022-12-29T19:36:43;101380.05;;;8.69;62.26
33949;BME280;20229;49.856;19.030;2022-12-29T19:41:46;101382.74;;;8.71;62.42
33949;BME280;20229;49.856;19.030;2022-12-29T19:47:08;101388.41;;;8.65;62.73
33949;BME280;20229;49.856;19.030;2022-12-29T19:52:11;101371.88;;;8.69;62.21
33949;BME280;20229;49.856;19.030;2022-12-29T19:57:33;101391.86;;;8.70;62.13
33949;BME280;20229;49.856;19.030;2022-12-29T20:02:37;101393.44;;;8.75;62.13
33949;BME280;20229;49.856;19.030;2022-12-29T20:08:00;101398.01;;;8.75;61.99
33949;BME280;20229;49.856;19.030;2022-12-29T20:13:04;101392.56;;;8.75;62.41
33949;BME280;20229;49.856;19.030;2022-12-29T20:18:27;101395.62;;;8.66;62.22
33949;BME280;20229;49.856;19.030;2022-12-29T20:23:32;101395.62;;;8.66;62.50
33949;BME280;20229;49.856;19.030;2022-12-29T20:28:54;101396.86;;;8.57;62.81
33949;BME280;20229;49.856;19.030;2022-12-29T20:33:59;101394.21;;;8.55;62.64
33949;BME280;20229;49.856;19.030;2022-12-29T20:39:19;101395.98;;;8.56;62.54
33949;BME280;20229;49.856;19.030;2022-12-29T20:44:23;101403.30;;;8.54;62.35
33949;BME280;20229;49.856;19.030;2022-12-29T20:49:45;101404.75;;;8.40;63.10
33949;BME280;20229;49.856;19.030;2022-12-29T20:54:49;101410.65;;;8.26;63.23
33949;BME280;20229;49.856;19.030;2022-12-29T21:00:11;101405.09;;;8.04;63.96
33949;BME280;20229;49.856;19.030;2022-12-29T21:05:15;101394.49;;;7.96;64.33
33949;BME280;20229;49.856;19.030;2022-12-29T21:10:36;101405.08;;;7.77;64.78
33949;BME280;20229;49.856;19.030;2022-12-29T21:15:40;101409.16;;;7.64;65.36
33949;BME280;20229;49.856;19.030;2022-12-29T21:21:08;101428.73;;;7.47;66.04
33949;BME280;20229;49.856;19.030;2022-12-29T21:26:17;101424.59;;;7.35;66.19
33949;BME280;20229;49.856;19.030;2022-12-29T21:31:35;101424.16;;;7.19;66.86
33949;BME280;20229;49.856;19.030;2022-12-29T21:36:39;101415.47;;;7.08;67.39
33949;BME280;20229;49.856;19.030;2022-12-29T21:41:54;101410.54;;;6.91;67.58
33949;BME280;20229;49.856;19.030;2022-12-29T21:47:01;101410.86;;;6.81;68.10
33949;BME280;20229;49.856;19.030;2022-12-29T21:52:20;101416.75;;;6.65;68.31
33949;BME280;20229;49.856;19.030;2022-12-29T21:57:24;101407.74;;;6.63;68.87
33949;BME280;20229;49.856;19.030;2022-12-29T22:02:46;101409.01;;;6.52;69.38
33949;BME280;20229;49.856;19.030;2022-12-29T22:08:02;101402.77;;;6.48;69.36
33949;BME280;20229;49.856;19.030;2022-12-29T22:13:17;101404.83;;;6.40;69.77
33949;BME280;20229;49.856;19.030;2022-12-29T22:18:21;101417.60;;;6.35;69.80
33949;BME280;20229;49.856;19.030;2022-12-29T22:23:39;101410.65;;;6.25;70.31
33949;BME280;20229;49.856;19.030;2022-12-29T22:28:43;101420.75;;;6.19;70.83
33949;BME280;20229;49.856;19.030;2022-12-29T22:34:04;101412.93;;;6.07;71.13
33949;BME280;20229;49.856;19.030;2022-12-29T22:39:07;101405.87;;;6.02;71.08
33949;BME280;20229;49.856;19.030;2022-12-29T22:44:30;101418.73;;;5.92;71.87
33949;BME280;20229;49.856;19.030;2022-12-29T22:49:33;101416.98;;;5.89;71.96
33949;BME280;20229;49.856;19.030;2022-12-29T22:54:55;101409.12;;;5.79;72.17
33949;BME280;20229;49.856;19.030;2022-12-29T22:59:59;101412.90;;;5.73;72.41
33949;BME280;20229;49.856;19.030;2022-12-29T23:05:21;101415.95;;;5.59;73.12
33949;BME280;20229;49.856;19.030;2022-12-29T23:10:25;101417.87;;;5.54;73.79
33949;BME280;20229;49.856;19.030;2022-12-29T23:15:47;101413.69;;;5.41;73.66
33949;BME280;20229;49.856;19.030;2022-12-29T23:20:51;101407.55;;;5.33;73.87
33949;BME280;20229;49.856;19.030;2022-12-29T23:26:13;101424.16;;;5.17;74.06
33949;BME280;20229;49.856;19.030;2022-12-29T23:31:16;101409.98;;;5.06;74.59
33949;BME280;20229;49.856;19.030;2022-12-29T23:36:39;101408.52;;;4.90;75.04
33949;BME280;20229;49.856;19.030;2022-12-29T23:41:43;101405.06;;;4.83;75.52
33949;BME280;20229;49.856;19.030;2022-12-29T23:47:04;101417.04;;;4.71;75.83
33949;BME280;20229;49.856;19.030;2022-12-29T23:52:07;101410.81;;;4.66;76.08
33949;BME280;20229;49.856;19.030;2022-12-29T23:57:30;101418.32;;;4.52;76.40
